sensor_id;sensor_type;location;lat;lon;timestamp;P1;durP1;ratioP1;P2;durP2;ratioP2
10657;SDS011;5377;43.276;26.930;2023-05-29T00:01:54;23.00;;;19.75;;
10657;SDS011;5377;43.276;26.930;2023-05-29T00:04:20;22.35;;;20.13;;
10657;SDS011;5377;43.276;26.930;2023-05-29T00:06:47;22.65;;;20.30;;
10657;SDS011;5377;43.276;26.930;2023-05-29T00:09:15;21.83;;;19.67;;
10657;SDS011;5377;43.276;26.930;2023-05-29T00:11:41;21.73;;;19.60;;
10657;SDS011;5377;43.276;26.930;2023-05-29T00:14:09;21.20;;;19.05;;
10657;SDS011;5377;43.276;26.930;2023-05-29T00:16:38;22.35;;;20.13;;
10657;SDS011;5377;43.276;26.930;2023-05-29T00:19:05;21.92;;;19.63;;
10657;SDS011;5377;43.276;26.930;2023-05-29T00:21:34;23.63;;;21.15;;
10657;SDS011;5377;43.276;26.930;2023-05-29T00:24:00;22.10;;;19.80;;
10657;SDS011;5377;43.276;26.930;2023-05-29T00:26:27;21.73;;;19.63;;
10657;SDS011;5377;43.276;26.930;2023-05-29T00:28:54;21.95;;;19.83;;
10657;SDS011;5377;43.276;26.930;2023-05-29T00:31:22;22.35;;;20.20;;
10657;SDS011;5377;43.276;26.930;2023-05-29T00:33:50;23.98;;;21.60;;
10657;SDS011;5377;43.276;26.930;2023-05-29T00:36:16;21.38;;;19.15;;
10657;SDS011;5377;43.276;26.930;2023-05-29T00:38:43;22.45;;;18.95;;
10657;SDS011;5377;43.276;26.930;2023-05-29T00:41:13;23.08;;;20.83;;
10657;SDS011;5377;43.276;26.930;2023-05-29T00:43:40;23.48;;;21.13;;
10657;SDS011;5377;43.276;26.930;2023-05-29T00:46:07;22.95;;;20.38;;
10657;SDS011;5377;43.276;26.930;2023-05-29T00:48:36;22.52;;;20.15;;
10657;SDS011;5377;43.276;26.930;2023-05-29T00:51:03;22.13;;;19.73;;
10657;SDS011;5377;43.276;26.930;2023-05-29T00:53:31;21.38;;;19.17;;
10657;SDS011;5377;43.276;26.930;2023-05-29T00:55:58;21.48;;;19.40;;
10657;SDS011;5377;43.276;26.930;2023-05-29T00:58:26;22.08;;;19.90;;
10657;SDS011;5377;43.276;26.930;2023-05-29T01:00:53;26.50;;;24.10;;
10657;SDS011;5377;43.276;26.930;2023-05-29T01:03:20;22.83;;;20.52;;
10657;SDS011;5377;43.276;26.930;2023-05-29T01:05:50;21.65;;;19.35;;
10657;SDS011;5377;43.276;26.930;2023-05-29T01:08:17;21.20;;;19.13;;
10657;SDS011;5377;43.276;26.930;2023-05-29T01:10:45;22.13;;;19.02;;
10657;SDS011;5377;43.276;26.930;2023-05-29T01:13:14;20.27;;;18.17;;
10657;SDS011;5377;43.276;26.930;2023-05-29T01:15:46;20.77;;;18.58;;
10657;SDS011;5377;43.276;26.930;2023-05-29T01:18:20;21.00;;;18.95;;
10657;SDS011;5377;43.276;26.930;2023-05-29T01:20:56;25.05;;;22.65;;
10657;SDS011;5377;43.276;26.930;2023-05-29T01:29:22;21.45;;;19.25;;
10657;SDS011;5377;43.276;26.930;2023-05-29T01:31:52;23.15;;;20.10;;
10657;SDS011;5377;43.276;26.930;2023-05-29T01:34:20;23.42;;;20.42;;
10657;SDS011;5377;43.276;26.930;2023-05-29T01:36:46;21.55;;;19.25;;
10657;SDS011;5377;43.276;26.930;2023-05-29T01:39:13;22.30;;;20.08;;
10657;SDS011;5377;43.276;26.930;2023-05-29T01:41:41;21.80;;;19.52;;
10657;SDS011;5377;43.276;26.930;2023-05-29T01:44:10;22.33;;;19.92;;
10657;SDS011;5377;43.276;26.930;2023-05-29T01:46:39;23.08;;;20.67;;
10657;SDS011;5377;43.276;26.930;2023-05-29T01:49:07;22.25;;;19.95;;
10657;SDS011;5377;43.276;26.930;2023-05-29T01:51:35;24.33;;;21.70;;
10657;SDS011;5377;43.276;26.930;2023-05-29T01:54:02;22.88;;;20.48;;
10657;SDS011;5377;43.276;26.930;2023-05-29T01:56:29;22.70;;;20.30;;
10657;SDS011;5377;43.276;26.930;2023-05-29T01:58:57;23.85;;;20.42;;
10657;SDS011;5377;43.276;26.930;2023-05-29T02:01:28;23.50;;;21.20;;
10657;SDS011;5377;43.276;26.930;2023-05-29T02:03:55;23.27;;;20.58;;
10657;SDS011;5377;43.276;26.930;2023-05-29T02:06:22;23.88;;;21.38;;
10657;SDS011;5377;43.276;26.930;2023-05-29T02:08:49;23.52;;;21.17;;
10657;SDS011;5377;43.276;26.930;2023-05-29T02:11:15;25.17;;;21.50;;
10657;SDS011;5377;43.276;26.930;2023-05-29T02:13:43;25.15;;;20.60;;
10657;SDS011;5377;43.276;26.930;2023-05-29T02:16:09;22.63;;;20.23;;
10657;SDS011;5377;43.276;26.930;2023-05-29T02:18:38;23.10;;;20.70;;
10657;SDS011;5377;43.276;26.930;2023-05-29T02:21:06;24.45;;;21.25;;
10657;SDS011;5377;43.276;26.930;2023-05-29T02:23:33;23.55;;;21.05;;
10657;SDS011;5377;43.276;26.930;2023-05-29T02:26:00;22.55;;;20.35;;
10657;SDS011;5377;43.276;26.930;2023-05-29T02:28:27;24.45;;;21.63;;
10657;SDS011;5377;43.276;26.930;2023-05-29T02:30:53;24.10;;;21.58;;
10657;SDS011;5377;43.276;26.930;2023-05-29T02:33:20;22.35;;;20.17;;
10657;SDS011;5377;43.276;26.930;2023-05-29T02:35:48;23.33;;;20.95;;
10657;SDS011;5377;43.276;26.930;2023-05-29T02:38:15;22.42;;;20.27;;
10657;SDS011;5377;43.276;26.930;2023-05-29T02:40:42;22.88;;;20.55;;
10657;SDS011;5377;43.276;26.930;2023-05-29T02:43:11;21.75;;;19.25;;
10657;SDS011;5377;43.276;26.930;2023-05-29T02:45:39;22.63;;;20.33;;
10657;SDS011;5377;43.276;26.930;2023-05-29T02:48:06;25.58;;;20.85;;
10657;SDS011;5377;43.276;26.930;2023-05-29T02:50:33;21.95;;;18.15;;
10657;SDS011;5377;43.276;26.930;2023-05-29T02:53:01;21.92;;;19.70;;
10657;SDS011;5377;43.276;26.930;2023-05-29T02:55:28;26.63;;;23.92;;
10657;SDS011;5377;43.276;26.930;2023-05-29T02:57:57;28.67;;;21.83;;
10657;SDS011;5377;43.276;26.930;2023-05-29T03:00:25;29.25;;;26.40;;
10657;SDS011;5377;43.276;26.930;2023-05-29T03:02:53;26.83;;;24.15;;
10657;SDS011;5377;43.276;26.930;2023-05-29T03:05:20;22.98;;;20.30;;
10657;SDS011;5377;43.276;26.930;2023-05-29T03:07:47;22.92;;;20.67;;
10657;SDS011;5377;43.276;26.930;2023-05-29T03:10:15;20.50;;;18.30;;
10657;SDS011;5377;43.276;26.930;2023-05-29T03:12:43;22.25;;;20.13;;
10657;SDS011;5377;43.276;26.930;2023-05-29T03:15:10;20.23;;;17.65;;
10657;SDS011;5377;43.276;26.930;2023-05-29T03:17:37;29.08;;;24.33;;
10657;SDS011;5377;43.276;26.930;2023-05-29T03:20:04;20.13;;;17.80;;
10657;SDS011;5377;43.276;26.930;2023-05-29T03:22:33;23.30;;;20.55;;
10657;SDS011;5377;43.276;26.930;2023-05-29T03:25:01;21.35;;;18.85;;
10657;SDS011;5377;43.276;26.930;2023-05-29T03:27:29;20.02;;;17.98;;
10657;SDS011;5377;43.276;26.930;2023-05-29T03:29:57;20.48;;;18.38;;
10657;SDS011;5377;43.276;26.930;2023-05-29T03:32:24;22.60;;;20.10;;
10657;SDS011;5377;43.276;26.930;2023-05-29T03:34:51;20.02;;;17.92;;
10657;SDS011;5377;43.276;26.930;2023-05-29T03:37:18;20.73;;;18.63;;
10657;SDS011;5377;43.276;26.930;2023-05-29T03:39:45;23.58;;;21.13;;
10657;SDS011;5377;43.276;26.930;2023-05-29T03:42:12;24.20;;;21.85;;
10657;SDS011;5377;43.276;26.930;2023-05-29T03:44:41;26.30;;;23.45;;
10657;SDS011;5377;43.276;26.930;2023-05-29T03:47:07;26.90;;;22.15;;
10657;SDS011;5377;43.276;26.930;2023-05-29T03:49:35;22.90;;;18.70;;
10657;SDS011;5377;43.276;26.930;2023-05-29T03:52:01;23.35;;;18.27;;
10657;SDS011;5377;43.276;26.930;2023-05-29T03:54:28;25.63;;;19.60;;
10657;SDS011;5377;43.276;26.930;2023-05-29T03:56:55;22.10;;;19.70;;
10657;SDS011;5377;43.276;26.930;2023-05-29T03:59:22;21.02;;;18.98;;
10657;SDS011;5377;43.276;26.930;2023-05-29T04:01:50;21.73;;;19.48;;
10657;SDS011;5377;43.276;26.930;2023-05-29T04:04:17;23.35;;;20.83;;
10657;SDS011;5377;43.276;26.930;2023-05-29T04:06:43;20.17;;;18.13;;
10657;SDS011;5377;43.276;26.930;2023-05-29T04:09:10;21.15;;;19.13;;
10657;SDS011;5377;43.276;26.930;2023-05-29T04:11:37;20.48;;;18.08;;
10657;SDS011;5377;43.276;26.930;2023-05-29T04:14:04;21.73;;;19.50;;
10657;SDS011;5377;43.276;26.930;2023-05-29T04:16:31;21.08;;;17.73;;
10657;SDS011;5377;43.276;26.930;2023-05-29T04:18:59;19.92;;;17.90;;
10657;SDS011;5377;43.276;26.930;2023-05-29T04:21:26;25.35;;;19.08;;
10657;SDS011;5377;43.276;26.930;2023-05-29T04:23:53;23.40;;;18.95;;
10657;SDS011;5377;43.276;26.930;2023-05-29T04:26:19;22.08;;;19.95;;
10657;SDS011;5377;43.276;26.930;2023-05-29T04:28:50;27.70;;;24.88;;
10657;SDS011;5377;43.276;26.930;2023-05-29T04:31:17;48.97;;;23.13;;
10657;SDS011;5377;43.276;26.930;2023-05-29T04:33:47;28.20;;;22.20;;
10657;SDS011;5377;43.276;26.930;2023-05-29T04:36:15;27.58;;;19.17;;
10657;SDS011;5377;43.276;26.930;2023-05-29T04:38:42;23.45;;;20.45;;
10657;SDS011;5377;43.276;26.930;2023-05-29T04:41:10;25.15;;;20.80;;
10657;SDS011;5377;43.276;26.930;2023-05-29T04:43:37;21.40;;;18.35;;
10657;SDS011;5377;43.276;26.930;2023-05-29T04:46:05;23.48;;;19.45;;
10657;SDS011;5377;43.276;26.930;2023-05-29T04:48:37;22.15;;;17.90;;
10657;SDS011;5377;43.276;26.930;2023-05-29T04:51:05;24.88;;;18.10;;
10657;SDS011;5377;43.276;26.930;2023-05-29T04:53:37;21.40;;;18.15;;
10657;SDS011;5377;43.276;26.930;2023-05-29T04:56:05;26.42;;;19.25;;
10657;SDS011;5377;43.276;26.930;2023-05-29T04:58:32;20.52;;;17.65;;
10657;SDS011;5377;43.276;26.930;2023-05-29T05:00:59;19.30;;;17.52;;
10657;SDS011;5377;43.276;26.930;2023-05-29T05:03:28;21.00;;;17.80;;
10657;SDS011;5377;43.276;26.930;2023-05-29T05:05:56;21.27;;;18.15;;
10657;SDS011;5377;43.276;26.930;2023-05-29T05:08:23;22.05;;;19.63;;
10657;SDS011;5377;43.276;26.930;2023-05-29T05:10:51;28.95;;;20.45;;
10657;SDS011;5377;43.276;26.930;2023-05-29T05:13:18;19.02;;;17.02;;
10657;SDS011;5377;43.276;26.930;2023-05-29T05:15:45;22.67;;;20.42;;
10657;SDS011;5377;43.276;26.930;2023-05-29T05:18:12;20.02;;;18.00;;
10657;SDS011;5377;43.276;26.930;2023-05-29T05:20:38;20.50;;;18.27;;
10657;SDS011;5377;43.276;26.930;2023-05-29T05:23:05;20.73;;;18.60;;
10657;SDS011;5377;43.276;26.930;2023-05-29T05:25:33;47.25;;;20.33;;
10657;SDS011;5377;43.276;26.930;2023-05-29T05:28:01;23.70;;;17.95;;
10657;SDS011;5377;43.276;26.930;2023-05-29T05:30:29;25.25;;;18.42;;
10657;SDS011;5377;43.276;26.930;2023-05-29T05:32:56;22.20;;;17.00;;
10657;SDS011;5377;43.276;26.930;2023-05-29T05:35:23;38.75;;;19.67;;
10657;SDS011;5377;43.276;26.930;2023-05-29T05:37:50;19.45;;;17.40;;
10657;SDS011;5377;43.276;26.930;2023-05-29T05:40:16;26.27;;;16.90;;
10657;SDS011;5377;43.276;26.930;2023-05-29T05:42:43;20.98;;;16.05;;
10657;SDS011;5377;43.276;26.930;2023-05-29T05:45:11;22.38;;;18.08;;
10657;SDS011;5377;43.276;26.930;2023-05-29T05:47:38;50.95;;;21.00;;
10657;SDS011;5377;43.276;26.930;2023-05-29T05:50:05;22.70;;;16.52;;
10657;SDS011;5377;43.276;26.930;2023-05-29T05:52:32;21.55;;;15.93;;
10657;SDS011;5377;43.276;26.930;2023-05-29T05:54:59;17.42;;;15.32;;
10657;SDS011;5377;43.276;26.930;2023-05-29T05:57:26;28.13;;;16.02;;
10657;SDS011;5377;43.276;26.930;2023-05-29T05:59:53;16.45;;;14.95;;
10657;SDS011;5377;43.276;26.930;2023-05-29T06:02:21;40.28;;;19.23;;
10657;SDS011;5377;43.276;26.930;2023-05-29T06:04:48;30.38;;;16.35;;
10657;SDS011;5377;43.276;26.930;2023-05-29T06:07:15;25.27;;;17.13;;
10657;SDS011;5377;43.276;26.930;2023-05-29T06:09:42;15.93;;;14.43;;
10657;SDS011;5377;43.276;26.930;2023-05-29T06:12:09;22.48;;;14.68;;
10657;SDS011;5377;43.276;26.930;2023-05-29T06:14:37;28.33;;;15.15;;
10657;SDS011;5377;43.276;26.930;2023-05-29T06:17:04;28.30;;;15.23;;
10657;SDS011;5377;43.276;26.930;2023-05-29T06:19:32;35.97;;;16.65;;
10657;SDS011;5377;43.276;26.930;2023-05-29T06:21:59;17.58;;;14.10;;
10657;SDS011;5377;43.276;26.930;2023-05-29T06:24:26;40.15;;;16.80;;
10657;SDS011;5377;43.276;26.930;2023-05-29T06:26:53;23.63;;;13.70;;
10657;SDS011;5377;43.276;26.930;2023-05-29T06:29:20;18.02;;;14.07;;
10657;SDS011;5377;43.276;26.930;2023-05-29T06:31:46;34.63;;;16.45;;
10657;SDS011;5377;43.276;26.930;2023-05-29T06:34:13;24.20;;;14.13;;
10657;SDS011;5377;43.276;26.930;2023-05-29T06:36:41;14.43;;;13.02;;
10657;SDS011;5377;43.276;26.930;2023-05-29T06:39:09;21.85;;;14.68;;
10657;SDS011;5377;43.276;26.930;2023-05-29T06:41:36;14.82;;;13.15;;
10657;SDS011;5377;43.276;26.930;2023-05-29T06:44:03;17.80;;;13.25;;
10657;SDS011;5377;43.276;26.930;2023-05-29T06:46:29;45.42;;;16.33;;
10657;SDS011;5377;43.276;26.930;2023-05-29T06:48:56;36.45;;;16.42;;
10657;SDS011;5377;43.276;26.930;2023-05-29T06:51:23;19.83;;;12.93;;
10657;SDS011;5377;43.276;26.930;2023-05-29T06:53:51;29.00;;;16.52;;
10657;SDS011;5377;43.276;26.930;2023-05-29T06:56:18;21.77;;;13.52;;
10657;SDS011;5377;43.276;26.930;2023-05-29T06:58:46;31.60;;;14.73;;
10657;SDS011;5377;43.276;26.930;2023-05-29T07:01:13;40.97;;;16.05;;
10657;SDS011;5377;43.276;26.930;2023-05-29T07:03:40;28.35;;;15.82;;
10657;SDS011;5377;43.276;26.930;2023-05-29T07:06:07;23.35;;;13.90;;
10657;SDS011;5377;43.276;26.930;2023-05-29T07:08:33;17.77;;;13.02;;
10657;SDS011;5377;43.276;26.930;2023-05-29T07:11:02;26.13;;;15.25;;
10657;SDS011;5377;43.276;26.930;2023-05-29T07:13:29;38.65;;;15.50;;
10657;SDS011;5377;43.276;26.930;2023-05-29T07:15:55;36.83;;;17.98;;
10657;SDS011;5377;43.276;26.930;2023-05-29T07:18:22;66.72;;;21.05;;
10657;SDS011;5377;43.276;26.930;2023-05-29T07:20:49;26.30;;;14.63;;
10657;SDS011;5377;43.276;26.930;2023-05-29T07:23:16;19.67;;;13.93;;
10657;SDS011;5377;43.276;26.930;2023-05-29T07:25:43;24.07;;;15.33;;
10657;SDS011;5377;43.276;26.930;2023-05-29T07:28:11;22.25;;;14.52;;
10657;SDS011;5377;43.276;26.930;2023-05-29T07:30:38;16.40;;;12.95;;
10657;SDS011;5377;43.276;26.930;2023-05-29T07:33:04;55.85;;;18.75;;
10657;SDS011;5377;43.276;26.930;2023-05-29T07:35:31;41.33;;;15.75;;
10657;SDS011;5377;43.276;26.930;2023-05-29T07:37:58;21.50;;;16.02;;
10657;SDS011;5377;43.276;26.930;2023-05-29T07:40:25;23.52;;;15.20;;
10657;SDS011;5377;43.276;26.930;2023-05-29T07:42:52;18.92;;;14.93;;
10657;SDS011;5377;43.276;26.930;2023-05-29T07:45:20;33.15;;;17.90;;
10657;SDS011;5377;43.276;26.930;2023-05-29T07:47:47;40.25;;;17.63;;
10657;SDS011;5377;43.276;26.930;2023-05-29T07:50:14;23.92;;;17.10;;
10657;SDS011;5377;43.276;26.930;2023-05-29T07:52:41;19.02;;;15.40;;
10657;SDS011;5377;43.276;26.930;2023-05-29T07:55:08;15.95;;;13.93;;
10657;SDS011;5377;43.276;26.930;2023-05-29T07:57:35;35.45;;;16.92;;
10657;SDS011;5377;43.276;26.930;2023-05-29T08:00:02;21.27;;;16.10;;
10657;SDS011;5377;43.276;26.930;2023-05-29T08:02:35;26.65;;;15.95;;
10657;SDS011;5377;43.276;26.930;2023-05-29T08:05:02;19.80;;;15.30;;
10657;SDS011;5377;43.276;26.930;2023-05-29T08:07:29;34.47;;;18.05;;
10657;SDS011;5377;43.276;26.930;2023-05-29T08:09:57;41.28;;;18.90;;
10657;SDS011;5377;43.276;26.930;2023-05-29T08:12:24;19.95;;;15.88;;
10657;SDS011;5377;43.276;26.930;2023-05-29T08:14:50;28.00;;;16.98;;
10657;SDS011;5377;43.276;26.930;2023-05-29T08:17:17;33.35;;;18.13;;
10657;SDS011;5377;43.276;26.930;2023-05-29T08:19:45;33.83;;;17.55;;
10657;SDS011;5377;43.276;26.930;2023-05-29T08:22:13;21.75;;;16.42;;
10657;SDS011;5377;43.276;26.930;2023-05-29T08:24:41;21.10;;;16.30;;
10657;SDS011;5377;43.276;26.930;2023-05-29T08:27:08;38.78;;;19.23;;
10657;SDS011;5377;43.276;26.930;2023-05-29T08:29:34;20.92;;;18.77;;
10657;SDS011;5377;43.276;26.930;2023-05-29T08:32:03;39.25;;;19.92;;
10657;SDS011;5377;43.276;26.930;2023-05-29T08:34:30;40.88;;;19.27;;
10657;SDS011;5377;43.276;26.930;2023-05-29T08:36:58;27.95;;;18.00;;
10657;SDS011;5377;43.276;26.930;2023-05-29T08:39:25;33.47;;;17.73;;
10657;SDS011;5377;43.276;26.930;2023-05-29T08:41:55;21.70;;;18.05;;
10657;SDS011;5377;43.276;26.930;2023-05-29T08:44:29;18.63;;;16.70;;
10657;SDS011;5377;43.276;26.930;2023-05-29T08:46:59;19.92;;;18.13;;
10657;SDS011;5377;43.276;26.930;2023-05-29T08:49:28;19.67;;;17.88;;
10657;SDS011;5377;43.276;26.930;2023-05-29T08:52:02;19.42;;;17.63;;
10657;SDS011;5377;43.276;26.930;2023-05-29T08:54:34;22.08;;;19.58;;
10657;SDS011;5377;43.276;26.930;2023-05-29T08:57:01;20.20;;;18.23;;
10657;SDS011;5377;43.276;26.930;2023-05-29T08:59:29;24.05;;;21.00;;
10657;SDS011;5377;43.276;26.930;2023-05-29T09:01:56;20.02;;;18.10;;
10657;SDS011;5377;43.276;26.930;2023-05-29T09:04:23;20.95;;;18.48;;
10657;SDS011;5377;43.276;26.930;2023-05-29T09:06:50;18.98;;;16.60;;
10657;SDS011;5377;43.276;26.930;2023-05-29T09:09:21;18.20;;;15.65;;
10657;SDS011;5377;43.276;26.930;2023-05-29T09:11:49;14.48;;;13.23;;
10657;SDS011;5377;43.276;26.930;2023-05-29T09:14:32;18.50;;;15.32;;
10657;SDS011;5377;43.276;26.930;2023-05-29T09:17:00;14.50;;;12.70;;
10657;SDS011;5377;43.276;26.930;2023-05-29T09:19:28;15.73;;;14.13;;
10657;SDS011;5377;43.276;26.930;2023-05-29T09:21:59;14.85;;;13.00;;
10657;SDS011;5377;43.276;26.930;2023-05-29T09:24:28;14.93;;;12.68;;
10657;SDS011;5377;43.276;26.930;2023-05-29T09:26:55;13.80;;;10.35;;
10657;SDS011;5377;43.276;26.930;2023-05-29T09:29:24;12.25;;;10.25;;
10657;SDS011;5377;43.276;26.930;2023-05-29T09:31:51;14.27;;;10.55;;
10657;SDS011;5377;43.276;26.930;2023-05-29T09:34:18;10.73;;;9.27;;
10657;SDS011;5377;43.276;26.930;2023-05-29T09:36:45;11.20;;;9.32;;
10657;SDS011;5377;43.276;26.930;2023-05-29T09:39:12;11.82;;;10.68;;
10657;SDS011;5377;43.276;26.930;2023-05-29T09:41:42;14.32;;;12.75;;
10657;SDS011;5377;43.276;26.930;2023-05-29T09:44:11;11.40;;;10.40;;
10657;SDS011;5377;43.276;26.930;2023-05-29T09:46:39;10.15;;;9.18;;
10657;SDS011;5377;43.276;26.930;2023-05-29T09:49:08;10.85;;;9.85;;
10657;SDS011;5377;43.276;26.930;2023-05-29T09:51:36;9.35;;;8.60;;
10657;SDS011;5377;43.276;26.930;2023-05-29T09:54:12;9.10;;;8.35;;
10657;SDS011;5377;43.276;26.930;2023-05-29T09:56:40;8.98;;;7.85;;
10657;SDS011;5377;43.276;26.930;2023-05-29T09:59:11;6.72;;;6.00;;
10657;SDS011;5377;43.276;26.930;2023-05-29T10:01:39;8.98;;;5.07;;
10657;SDS011;5377;43.276;26.930;2023-05-29T10:04:09;7.47;;;5.35;;
10657;SDS011;5377;43.276;26.930;2023-05-29T10:06:37;5.85;;;5.32;;
10657;SDS011;5377;43.276;26.930;2023-05-29T10:09:05;7.40;;;6.70;;
10657;SDS011;5377;43.276;26.930;2023-05-29T10:11:35;7.00;;;6.03;;
10657;SDS011;5377;43.276;26.930;2023-05-29T10:14:05;5.60;;;4.60;;
10657;SDS011;5377;43.276;26.930;2023-05-29T10:16:34;4.95;;;4.53;;
10657;SDS011;5377;43.276;26.930;2023-05-29T10:19:06;7.10;;;5.93;;
10657;SDS011;5377;43.276;26.930;2023-05-29T10:21:39;7.13;;;5.93;;
10657;SDS011;5377;43.276;26.930;2023-05-29T10:24:07;8.43;;;7.70;;
10657;SDS011;5377;43.276;26.930;2023-05-29T10:26:38;5.43;;;4.95;;
10657;SDS011;5377;43.276;26.930;2023-05-29T10:29:10;6.70;;;6.05;;
10657;SDS011;5377;43.276;26.930;2023-05-29T10:31:46;14.05;;;8.65;;
10657;SDS011;5377;43.276;26.930;2023-05-29T10:34:29;6.90;;;6.30;;
10657;SDS011;5377;43.276;26.930;2023-05-29T10:37:06;7.97;;;6.60;;
10657;SDS011;5377;43.276;26.930;2023-05-29T10:39:43;6.38;;;5.88;;
10657;SDS011;5377;43.276;26.930;2023-05-29T10:51:08;7.28;;;6.63;;
10657;SDS011;5377;43.276;26.930;2023-05-29T10:53:53;8.27;;;7.13;;
10657;SDS011;5377;43.276;26.930;2023-05-29T10:56:21;11.48;;;10.27;;
10657;SDS011;5377;43.276;26.930;2023-05-29T10:58:54;9.25;;;8.35;;
10657;SDS011;5377;43.276;26.930;2023-05-29T11:01:24;9.32;;;8.18;;
10657;SDS011;5377;43.276;26.930;2023-05-29T11:03:53;8.30;;;7.50;;
10657;SDS011;5377;43.276;26.930;2023-05-29T11:06:41;10.35;;;8.68;;
10657;SDS011;5377;43.276;26.930;2023-05-29T11:09:11;8.73;;;8.02;;
10657;SDS011;5377;43.276;26.930;2023-05-29T11:14:53;10.80;;;9.70;;
10657;SDS011;5377;43.276;26.930;2023-05-29T11:17:29;9.38;;;8.60;;
10657;SDS011;5377;43.276;26.930;2023-05-29T11:20:16;9.52;;;8.73;;
10657;SDS011;5377;43.276;26.930;2023-05-29T11:22:56;8.20;;;7.55;;
10657;SDS011;5377;43.276;26.930;2023-05-29T11:25:27;9.65;;;8.13;;
10657;SDS011;5377;43.276;26.930;2023-05-29T11:27:55;9.25;;;8.35;;
10657;SDS011;5377;43.276;26.930;2023-05-29T11:30:22;7.75;;;7.13;;
10657;SDS011;5377;43.276;26.930;2023-05-29T11:32:51;8.13;;;6.90;;
10657;SDS011;5377;43.276;26.930;2023-05-29T11:35:21;8.90;;;6.43;;
10657;SDS011;5377;43.276;26.930;2023-05-29T11:37:48;7.60;;;7.03;;
10657;SDS011;5377;43.276;26.930;2023-05-29T11:40:15;7.35;;;6.65;;
10657;SDS011;5377;43.276;26.930;2023-05-29T11:42:43;11.98;;;6.97;;
10657;SDS011;5377;43.276;26.930;2023-05-29T11:45:12;10.90;;;9.65;;
10657;SDS011;5377;43.276;26.930;2023-05-29T11:50:26;7.57;;;6.95;;
10657;SDS011;5377;43.276;26.930;2023-05-29T11:52:55;7.80;;;6.63;;
10657;SDS011;5377;43.276;26.930;2023-05-29T11:55:22;8.27;;;7.40;;
10657;SDS011;5377;43.276;26.930;2023-05-29T11:57:50;8.10;;;7.38;;
10657;SDS011;5377;43.276;26.930;2023-05-29T12:00:21;6.88;;;6.32;;
10657;SDS011;5377;43.276;26.930;2023-05-29T12:02:49;10.43;;;9.50;;
10657;SDS011;5377;43.276;26.930;2023-05-29T12:05:18;7.20;;;6.50;;
10657;SDS011;5377;43.276;26.930;2023-05-29T12:07:48;7.10;;;6.40;;
10657;SDS011;5377;43.276;26.930;2023-05-29T12:10:16;6.55;;;5.55;;
10657;SDS011;5377;43.276;26.930;2023-05-29T12:12:47;5.60;;;5.10;;
10657;SDS011;5377;43.276;26.930;2023-05-29T12:15:15;7.03;;;6.47;;
10657;SDS011;5377;43.276;26.930;2023-05-29T12:17:43;8.40;;;7.80;;
10657;SDS011;5377;43.276;26.930;2023-05-29T12:20:11;7.82;;;7.07;;
10657;SDS011;5377;43.276;26.930;2023-05-29T12:22:41;7.95;;;7.35;;
10657;SDS011;5377;43.276;26.930;2023-05-29T12:25:09;5.00;;;4.47;;
10657;SDS011;5377;43.276;26.930;2023-05-29T12:27:37;4.68;;;4.32;;
10657;SDS011;5377;43.276;26.930;2023-05-29T12:30:08;4.93;;;4.63;;
10657;SDS011;5377;43.276;26.930;2023-05-29T12:32:37;5.07;;;4.78;;
10657;SDS011;5377;43.276;26.930;2023-05-29T12:35:12;6.20;;;5.60;;
10657;SDS011;5377;43.276;26.930;2023-05-29T12:37:44;6.95;;;5.68;;
10657;SDS011;5377;43.276;26.930;2023-05-29T12:40:15;6.53;;;5.95;;
10657;SDS011;5377;43.276;26.930;2023-05-29T12:42:42;9.13;;;6.60;;
10657;SDS011;5377;43.276;26.930;2023-05-29T12:45:09;11.10;;;10.20;;
10657;SDS011;5377;43.276;26.930;2023-05-29T12:47:37;6.95;;;6.45;;
10657;SDS011;5377;43.276;26.930;2023-05-29T12:50:23;7.30;;;6.72;;
10657;SDS011;5377;43.276;26.930;2023-05-29T12:52:56;6.45;;;5.85;;
10657;SDS011;5377;43.276;26.930;2023-05-29T12:55:24;7.28;;;6.68;;
10657;SDS011;5377;43.276;26.930;2023-05-29T12:57:51;6.20;;;5.70;;
10657;SDS011;5377;43.276;26.930;2023-05-29T13:00:19;8.48;;;6.80;;
10657;SDS011;5377;43.276;26.930;2023-05-29T13:02:46;6.80;;;6.40;;
10657;SDS011;5377;43.276;26.930;2023-05-29T13:05:13;7.80;;;7.30;;
10657;SDS011;5377;43.276;26.930;2023-05-29T13:07:43;8.50;;;7.70;;
10657;SDS011;5377;43.276;26.930;2023-05-29T13:10:12;8.13;;;7.53;;
10657;SDS011;5377;43.276;26.930;2023-05-29T13:12:39;9.65;;;8.77;;
10657;SDS011;5377;43.276;26.930;2023-05-29T13:15:07;8.85;;;8.05;;
10657;SDS011;5377;43.276;26.930;2023-05-29T13:17:34;7.55;;;6.88;;
10657;SDS011;5377;43.276;26.930;2023-05-29T13:20:01;8.35;;;7.65;;
10657;SDS011;5377;43.276;26.930;2023-05-29T13:22:31;9.25;;;8.45;;
10657;SDS011;5377;43.276;26.930;2023-05-29T13:24:58;10.68;;;9.88;;
10657;SDS011;5377;43.276;26.930;2023-05-29T13:27:26;10.40;;;9.48;;
10657;SDS011;5377;43.276;26.930;2023-05-29T13:29:53;9.10;;;8.30;;
10657;SDS011;5377;43.276;26.930;2023-05-29T13:32:20;7.90;;;7.18;;
10657;SDS011;5377;43.276;26.930;2023-05-29T13:34:47;9.02;;;8.38;;
10657;SDS011;5377;43.276;26.930;2023-05-29T13:37:14;8.30;;;7.70;;
10657;SDS011;5377;43.276;26.930;2023-05-29T13:39:41;8.95;;;8.15;;
10657;SDS011;5377;43.276;26.930;2023-05-29T13:42:08;10.80;;;8.68;;
10657;SDS011;5377;43.276;26.930;2023-05-29T13:44:36;9.35;;;8.63;;
10657;SDS011;5377;43.276;26.930;2023-05-29T13:47:04;9.50;;;8.80;;
10657;SDS011;5377;43.276;26.930;2023-05-29T13:49:31;11.77;;;10.60;;
10657;SDS011;5377;43.276;26.930;2023-05-29T13:51:58;11.07;;;10.07;;
10657;SDS011;5377;43.276;26.930;2023-05-29T13:54:25;9.65;;;8.95;;
10657;SDS011;5377;43.276;26.930;2023-05-29T13:56:54;9.00;;;8.32;;
10657;SDS011;5377;43.276;26.930;2023-05-29T13:59:22;12.05;;;11.05;;
10657;SDS011;5377;43.276;26.930;2023-05-29T14:01:50;12.00;;;10.68;;
10657;SDS011;5377;43.276;26.930;2023-05-29T14:04:17;10.63;;;9.75;;
10657;SDS011;5377;43.276;26.930;2023-05-29T14:06:44;10.63;;;9.77;;
10657;SDS011;5377;43.276;26.930;2023-05-29T14:09:10;12.18;;;11.18;;
10657;SDS011;5377;43.276;26.930;2023-05-29T14:11:38;12.02;;;11.05;;
10657;SDS011;5377;43.276;26.930;2023-05-29T14:14:05;10.98;;;10.07;;
10657;SDS011;5377;43.276;26.930;2023-05-29T14:16:32;13.75;;;12.65;;
10657;SDS011;5377;43.276;26.930;2023-05-29T14:19:00;11.20;;;10.20;;
10657;SDS011;5377;43.276;26.930;2023-05-29T14:21:27;11.75;;;10.82;;
10657;SDS011;5377;43.276;26.930;2023-05-29T14:23:54;11.05;;;10.05;;
10657;SDS011;5377;43.276;26.930;2023-05-29T14:26:21;12.50;;;11.50;;
10657;SDS011;5377;43.276;26.930;2023-05-29T14:28:48;12.40;;;11.35;;
10657;SDS011;5377;43.276;26.930;2023-05-29T14:31:15;10.18;;;9.48;;
10657;SDS011;5377;43.276;26.930;2023-05-29T14:33:41;11.82;;;10.85;;
10657;SDS011;5377;43.276;26.930;2023-05-29T14:36:09;10.77;;;9.70;;
10657;SDS011;5377;43.276;26.930;2023-05-29T14:38:37;11.32;;;10.23;;
10657;SDS011;5377;43.276;26.930;2023-05-29T14:41:04;10.98;;;10.10;;
10657;SDS011;5377;43.276;26.930;2023-05-29T14:43:31;8.93;;;8.32;;
10657;SDS011;5377;43.276;26.930;2023-05-29T14:45:58;9.85;;;9.15;;
10657;SDS011;5377;43.276;26.930;2023-05-29T14:48:25;9.75;;;8.77;;
10657;SDS011;5377;43.276;26.930;2023-05-29T14:50:52;9.23;;;8.43;;
10657;SDS011;5377;43.276;26.930;2023-05-29T14:53:20;10.23;;;9.18;;
10657;SDS011;5377;43.276;26.930;2023-05-29T14:55:48;9.77;;;9.02;;